Time;durP1;ratioP1;P1;durP2;ratioP2;P2;SDS_P1;SDS_P2;PMS_P1;PMS_P2;Temp;Humidity;BMP_temperature;BMP_pressure;BME280_temperature;BME280_humidity;BME280_pressure;Samples;Min_cycle;Max_cycle;Signal;HPM_P1;HPM_P2
2023/01/20 00:00:18;;;;;;;18.90;14.75;;;4.70;99.90;;;;;;4953640;28;20195;-49
2023/01/20 00:02:44;;;;;;;21.33;13.60;;;4.70;99.90;;;;;;4953840;29;20246;-48
2023/01/20 00:05:11;;;;;;;21.60;13.65;;;4.60;99.90;;;;;;4976385;23;20270;-50
2023/01/20 00:07:38;;;;;;;18.88;13.43;;;4.60;99.90;;;;;;4953109;29;20565;-49
2023/01/20 00:10:05;;;;;;;17.52;13.50;;;4.30;99.90;;;;;;4952706;29;20203;-50
2023/01/20 00:12:32;;;;;;;19.23;13.68;;;4.20;99.90;;;;;;4953170;29;20587;-49
2023/01/20 00:14:59;;;;;;;21.50;12.75;;;4.30;99.90;;;;;;4952948;28;20211;-49
2023/01/20 00:17:28;;;;;;;21.42;14.40;;;4.60;99.90;;;;;;4953257;28;20219;-49
2023/01/20 00:19:54;;;;;;;22.08;13.93;;;4.20;99.90;;;;;;4952673;28;20200;-50
2023/01/20 00:22:21;;;;;;;25.85;16.05;;;4.20;99.90;;;;;;4952909;28;20707;-49
2023/01/20 00:24:48;;;;;;;24.00;14.55;;;3.80;99.90;;;;;;4953079;28;20261;-50
2023/01/20 00:27:15;;;;;;;23.55;14.57;;;4.40;99.90;;;;;;4953086;28;20298;-49
2023/01/20 00:29:43;;;;;;;20.35;14.82;;;4.20;99.90;;;;;;5019159;28;20222;-49
2023/01/20 00:32:09;;;;;;;21.65;16.00;;;4.30;99.90;;;;;;4952576;29;20280;-52
2023/01/20 00:34:37;;;;;;;22.27;14.52;;;4.40;99.90;;;;;;4952588;28;20664;-51
2023/01/20 00:37:04;;;;;;;19.33;12.73;;;4.50;99.90;;;;;;4952707;29;20196;-49
2023/01/20 00:39:31;;;;;;;16.58;11.98;;;4.20;99.90;;;;;;4952301;29;20203;-51
2023/01/20 00:41:57;;;;;;;21.27;13.25;;;4.20;99.90;;;;;;4952744;28;20695;-50
2023/01/20 00:44:24;;;;;;;20.90;13.93;;;3.60;99.90;;;;;;4952468;29;20278;-49
2023/01/20 00:46:50;;;;;;;22.10;13.35;;;4.10;99.90;;;;;;4952367;28;20219;-49
2023/01/20 00:49:17;;;;;;;24.90;13.95;;;4.20;99.90;;;;;;4951383;28;20211;-49
2023/01/20 00:51:45;;;;;;;19.77;13.77;;;4.20;99.90;;;;;;4952345;29;20216;-50
2023/01/20 00:54:11;;;;;;;19.52;14.68;;;4.10;99.90;;;;;;4952637;28;20203;-50
2023/01/20 00:56:38;;;;;;;22.35;14.85;;;4.10;99.90;;;;;;4952212;28;20219;-50
2023/01/20 00:59:05;;;;;;;21.15;14.25;;;4.20;99.90;;;;;;4952103;28;20730;-49
2023/01/20 01:01:31;;;;;;;23.83;15.07;;;4.30;99.90;;;;;;4952254;29;20196;-49
2023/01/20 01:03:58;;;;;;;25.98;14.13;;;4.10;99.90;;;;;;4952411;28;20223;-52
2023/01/20 01:06:24;;;;;;;20.15;13.35;;;4.00;99.90;;;;;;4952344;28;20594;-50
2023/01/20 01:08:52;;;;;;;21.13;11.88;;;4.30;99.90;;;;;;4951879;29;20200;-51
2023/01/20 01:11:19;;;;;;;19.38;13.45;;;3.90;99.90;;;;;;4952404;28;20195;-51
2023/01/20 01:13:45;;;;;;;16.15;11.60;;;4.10;99.90;;;;;;4951950;29;20234;-50
2023/01/20 01:16:14;;;;;;;21.23;13.48;;;3.40;99.90;;;;;;4952512;28;20230;-50
2023/01/20 01:18:41;;;;;;;20.25;13.00;;;3.70;99.90;;;;;;4951823;29;20211;-51
2023/01/20 01:21:09;;;;;;;18.88;12.48;;;3.60;99.90;;;;;;4952062;29;20199;-50
2023/01/20 01:23:36;;;;;;;20.48;12.57;;;4.00;99.90;;;;;;4951932;29;20196;-51
2023/01/20 01:26:04;;;;;;;19.67;12.90;;;3.80;99.90;;;;;;4952136;28;20222;-49
2023/01/20 01:28:31;;;;;;;21.65;13.68;;;4.00;99.90;;;;;;4951750;28;20203;-51
2023/01/20 01:31:00;;;;;;;19.40;12.82;;;4.00;99.90;;;;;;4951977;28;20291;-50
2023/01/20 01:33:27;;;;;;;20.08;13.40;;;3.90;99.90;;;;;;4952029;28;20333;-48
2023/01/20 01:35:57;;;;;;;18.88;13.10;;;3.90;99.90;;;;;;4952221;28;20219;-48
2023/01/20 01:38:24;;;;;;;24.92;13.15;;;4.00;99.90;;;;;;4951665;28;20210;-50
2023/01/20 01:40:52;;;;;;;18.77;12.82;;;3.90;99.90;;;;;;4951984;28;20222;-50
2023/01/20 01:43:23;;;;;;;23.25;13.18;;;4.00;99.90;;;;;;4951890;28;20562;-49
2023/01/20 01:45:50;;;;;;;23.27;13.70;;;3.80;99.90;;;;;;4951892;28;20249;-50
2023/01/20 01:48:18;;;;;;;22.05;14.05;;;3.90;99.90;;;;;;4951358;29;20231;-48
2023/01/20 01:50:49;;;;;;;28.10;14.55;;;4.00;99.90;;;;;;4951951;28;20207;-50
2023/01/20 01:53:16;;;;;;;22.90;14.00;;;4.20;99.90;;;;;;4951711;28;20233;-49
2023/01/20 01:55:47;;;;;;;23.98;13.15;;;3.90;99.90;;;;;;4951611;28;20718;-50
2023/01/20 01:58:16;;;;;;;23.48;13.20;;;3.90;99.90;;;;;;4951163;29;20203;-49
2023/01/20 02:00:45;;;;;;;22.45;13.73;;;3.80;99.90;;;;;;5017252;28;20207;-49
2023/01/20 02:03:12;;;;;;;21.48;13.02;;;3.70;99.90;;;;;;4951640;28;20200;-49
2023/01/20 02:05:39;;;;;;;17.15;12.95;;;3.90;99.90;;;;;;4951635;28;20738;-49
2023/01/20 02:08:07;;;;;;;19.75;12.23;;;3.30;99.90;;;;;;4951232;29;20678;-50
2023/01/20 02:10:34;;;;;;;19.83;12.02;;;3.70;99.90;;;;;;4952287;29;20222;-51
2023/01/20 02:13:01;;;;;;;23.58;13.63;;;3.40;99.90;;;;;;4952002;28;20227;-50
2023/01/20 02:15:33;;;;;;;16.30;12.55;;;3.60;99.90;;;;;;4951720;28;20220;-50
2023/01/20 02:18:16;;;;;;;20.13;12.23;;;3.70;99.90;;;;;;4951611;29;20199;-50
2023/01/20 02:21:00;;;;;;;14.77;11.88;;;3.80;99.90;;;;;;4951470;29;20202;-49
2023/01/20 02:23:49;;;;;;;22.02;12.48;;;3.80;99.90;;;;;;4951657;28;20191;-49
2023/01/20 02:26:32;;;;;;;30.10;14.30;;;3.90;99.90;;;;;;4951299;28;20239;-49
2023/01/20 02:29:31;;;;;;;17.65;12.10;;;3.70;99.90;;;;;;4950719;29;20660;-50
2023/01/20 02:32:21;;;;;;;20.63;12.15;;;3.50;99.90;;;;;;4951257;28;20202;-50
2023/01/20 02:34:57;;;;;;;25.45;13.20;;;3.80;99.90;;;;;;4951268;28;20208;-50
2023/01/20 02:37:28;;;;;;;23.38;11.18;;;3.60;99.90;;;;;;4951315;28;20356;-49
2023/01/20 02:40:07;;;;;;;23.25;12.93;;;3.90;99.90;;;;;;4950518;29;20208;-49
2023/01/20 02:42:41;;;;;;;16.33;11.18;;;4.00;99.90;;;;;;4950897;29;20372;-49
2023/01/20 02:45:14;;;;;;;14.65;11.52;;;3.90;99.90;;;;;;4950974;28;20215;-50
2023/01/20 02:47:49;;;;;;;18.77;11.43;;;3.80;99.90;;;;;;4950964;28;20229;-50
2023/01/20 02:50:21;;;;;;;22.73;12.50;;;4.00;99.90;;;;;;4950615;28;20212;-50
2023/01/20 02:52:53;;;;;;;26.25;12.88;;;3.70;99.90;;;;;;4950903;28;20317;-50
2023/01/20 02:55:25;;;;;;;18.52;12.98;;;3.90;99.90;;;;;;4950681;28;20721;-51
2023/01/20 02:57:57;;;;;;;20.70;13.45;;;3.80;99.90;;;;;;4950834;28;20282;-50
2023/01/20 03:00:30;;;;;;;22.08;12.90;;;4.40;99.90;;;;;;4950346;29;20206;-50
2023/01/20 03:03:01;;;;;;;21.73;13.95;;;3.80;99.90;;;;;;4950464;29;20180;-50
2023/01/20 03:05:30;;;;;;;20.38;13.80;;;3.60;99.90;;;;;;4950665;28;20601;-49
2023/01/20 03:08:01;;;;;;;24.42;15.82;;;3.80;99.90;;;;;;4950508;29;20311;-49
2023/01/20 03:10:32;;;;;;;22.00;13.93;;;3.90;99.90;;;;;;4950315;28;20583;-50
2023/01/20 03:13:06;;;;;;;25.52;14.95;;;3.50;99.90;;;;;;4953915;29;20596;-49
2023/01/20 03:15:38;;;;;;;20.10;13.40;;;3.70;99.90;;;;;;4954133;28;20634;-49
2023/01/20 03:18:06;;;;;;;22.65;14.45;;;3.80;99.90;;;;;;4953843;29;20215;-50
2023/01/20 03:20:33;;;;;;;23.50;13.73;;;3.60;99.90;;;;;;5020350;28;20214;-50
2023/01/20 03:23:00;;;;;;;20.70;14.75;;;3.80;99.90;;;;;;5020741;28;20701;-49
2023/01/20 03:25:27;;;;;;;22.63;15.40;;;3.70;99.90;;;;;;5020706;28;20670;-49
2023/01/20 03:27:56;;;;;;;25.15;14.80;;;3.80;99.90;;;;;;4953990;29;20200;-50
2023/01/20 03:30:24;;;;;;;22.77;15.45;;;4.00;99.90;;;;;;4953596;28;20294;-50
2023/01/20 03:32:53;;;;;;;25.92;15.02;;;3.90;99.90;;;;;;4954018;28;20302;-49
2023/01/20 03:35:21;;;;;;;29.20;14.80;;;4.00;99.90;;;;;;4954364;28;20230;-49
2023/01/20 03:37:47;;;;;;;23.65;14.63;;;3.90;99.90;;;;;;4954277;29;20199;-49
2023/01/20 03:40:15;;;;;;;23.75;14.38;;;3.60;99.90;;;;;;4953785;29;20560;-49
2023/01/20 03:42:52;;;;;;;22.80;15.35;;;3.80;99.90;;;;;;4954120;28;20218;-50
2023/01/20 03:45:28;;;;;;;24.63;14.07;;;3.30;99.90;;;;;;4953975;28;20223;-49
2023/01/20 03:47:58;;;;;;;26.92;15.93;;;3.90;99.90;;;;;;4953496;29;20203;-50
2023/01/20 03:50:35;;;;;;;23.73;15.48;;;4.10;99.90;;;;;;4953423;29;20219;-49
2023/01/20 03:53:09;;;;;;;24.00;16.17;;;3.60;99.90;;;;;;4953480;29;20215;-49
2023/01/20 03:55:41;;;;;;;21.83;15.50;;;4.00;99.90;;;;;;4953554;28;20223;-49
2023/01/20 03:58:11;;;;;;;30.17;16.42;;;3.30;99.90;;;;;;4952955;29;20204;-49
2023/01/20 04:00:41;;;;;;;23.30;15.00;;;4.40;99.90;;;;;;4953363;29;20204;-49
2023/01/20 04:03:11;;;;;;;21.25;14.98;;;3.90;99.90;;;;;;4953192;29;20202;-49
2023/01/20 04:05:41;;;;;;;23.45;15.40;;;4.00;99.90;;;;;;4953219;28;20227;-50
2023/01/20 04:08:10;;;;;;;29.25;17.20;;;3.90;99.90;;;;;;4952966;29;20271;-50
2023/01/20 04:10:41;;;;;;;26.92;16.77;;;3.90;99.90;;;;;;4953173;29;20203;-50
2023/01/20 04:13:08;;;;;;;31.80;17.75;;;3.90;99.90;;;;;;4953076;28;20212;-50
2023/01/20 04:15:38;;;;;;;27.63;16.42;;;3.60;99.90;;;;;;4952806;28;20219;-49
2023/01/20 04:18:14;;;;;;;27.10;17.15;;;3.50;99.90;;;;;;4953030;29;20207;-51
2023/01/20 04:20:44;;;;;;;26.33;16.52;;;3.80;99.90;;;;;;4953238;29;20225;-50
2023/01/20 04:23:17;;;;;;;29.65;19.30;;;3.20;99.90;;;;;;4952796;28;20192;-49
2023/01/20 04:25:44;;;;;;;31.38;18.85;;;3.60;99.90;;;;;;4953166;28;20292;-50
2023/01/20 04:28:11;;;;;;;28.15;18.73;;;3.90;99.90;;;;;;4952433;28;20649;-51
2023/01/20 04:30:37;;;;;;;25.83;17.17;;;3.80;99.90;;;;;;4952790;28;20282;-49
2023/01/20 04:33:04;;;;;;;28.77;19.02;;;3.60;99.90;;;;;;4952642;29;20227;-49
2023/01/20 04:35:30;;;;;;;27.10;18.95;;;3.90;99.90;;;;;;4952639;28;20220;-48
2023/01/20 04:37:58;;;;;;;31.60;20.65;;;3.60;99.90;;;;;;4952668;28;20286;-49
2023/01/20 04:40:25;;;;;;;28.73;18.33;;;3.80;99.90;;;;;;5018769;28;20207;-49
2023/01/20 04:42:52;;;;;;;24.17;17.92;;;4.10;99.90;;;;;;4952770;28;20593;-48
2023/01/20 04:45:18;;;;;;;26.38;18.10;;;3.40;99.90;;;;;;4952577;28;20219;-50
2023/01/20 04:47:45;;;;;;;26.75;19.23;;;4.20;99.90;;;;;;4952839;28;20204;-49
2023/01/20 04:50:12;;;;;;;26.13;17.90;;;3.90;99.90;;;;;;4952417;28;20211;-50
2023/01/20 04:52:39;;;;;;;30.13;20.70;;;3.80;99.90;;;;;;4952629;29;20621;-50
2023/01/20 04:55:08;;;;;;;32.28;22.00;;;3.70;99.90;;;;;;4952733;28;20226;-50
2023/01/20 04:57:35;;;;;;;34.22;20.90;;;3.90;99.90;;;;;;4952474;29;20208;-49
2023/01/20 05:00:01;;;;;;;27.60;20.30;;;3.60;99.90;;;;;;4952743;29;20203;-49
2023/01/20 05:02:28;;;;;;;34.85;22.23;;;3.20;99.90;;;;;;4952647;28;20207;-49
2023/01/20 05:04:54;;;;;;;30.40;21.73;;;3.90;99.90;;;;;;4952882;28;20219;-49
2023/01/20 05:07:21;;;;;;;40.00;22.70;;;3.60;99.90;;;;;;4953029;28;20208;-48
2023/01/20 05:09:48;;;;;;;30.95;22.08;;;3.70;99.90;;;;;;4952208;29;20199;-50
2023/01/20 05:12:16;;;;;;;31.52;22.08;;;3.20;99.90;;;;;;4953036;29;20199;-49
2023/01/20 05:14:42;;;;;;;30.15;20.95;;;3.00;99.90;;;;;;4952571;28;20223;-50
2023/01/20 05:17:09;;;;;;;37.08;23.42;;;3.50;99.90;;;;;;5019171;28;20211;-49
2023/01/20 05:19:35;;;;;;;36.58;22.55;;;3.40;99.90;;;;;;4952543;28;20206;-49
2023/01/20 05:22:02;;;;;;;37.83;22.92;;;3.60;99.90;;;;;;4953088;28;20207;-49
2023/01/20 05:24:29;;;;;;;42.60;24.60;;;3.80;99.90;;;;;;4953040;28;20198;-49
2023/01/20 05:26:59;;;;;;;30.98;23.52;;;3.50;99.90;;;;;;4952720;28;20207;-49
2023/01/20 05:29:27;;;;;;;38.15;24.70;;;3.50;99.90;;;;;;4952757;29;20204;-47
2023/01/20 05:31:54;;;;;;;33.88;24.20;;;3.40;99.90;;;;;;4952520;28;20206;-49
2023/01/20 05:34:21;;;;;;;41.38;23.92;;;3.70;99.90;;;;;;4951812;28;20215;-50
2023/01/20 05:36:51;;;;;;;35.90;23.65;;;3.50;99.90;;;;;;4952009;28;20597;-51
2023/01/20 05:39:18;;;;;;;34.10;21.88;;;3.60;99.90;;;;;;4951615;29;20203;-49
2023/01/20 05:41:45;;;;;;;37.90;23.92;;;3.80;99.90;;;;;;4951798;29;20668;-50
2023/01/20 05:44:11;;;;;;;34.72;22.38;;;3.20;99.90;;;;;;4952098;28;20282;-50
2023/01/20 05:46:39;;;;;;;32.80;21.17;;;3.70;99.90;;;;;;4951808;28;20212;-49
2023/01/20 05:49:06;;;;;;;30.80;20.10;;;3.50;99.90;;;;;;4951301;29;20206;-49
2023/01/20 05:51:33;;;;;;;36.58;22.58;;;3.80;99.90;;;;;;4951585;29;20676;-50
2023/01/20 05:54:18;;;;;;;38.90;24.95;;;3.90;99.90;;;;;;5017912;28;20699;-49
2023/01/20 05:56:48;;;;;;;31.73;22.30;;;3.80;99.90;;;;;;4952063;28;20219;-49
2023/01/20 05:59:15;;;;;;;32.97;23.88;;;3.40;99.90;;;;;;5017045;28;20211;-50
2023/01/20 06:01:43;;;;;;;37.65;23.23;;;3.60;99.90;;;;;;4951492;29;20207;-48
2023/01/20 06:04:10;;;;;;;35.20;23.83;;;3.40;99.90;;;;;;4951453;29;20195;-49
2023/01/20 06:06:37;;;;;;;35.63;24.25;;;3.70;99.90;;;;;;4951995;28;20368;-50
2023/01/20 06:09:05;;;;;;;44.58;25.15;;;3.60;99.90;;;;;;4951032;28;20205;-49
2023/01/20 06:11:32;;;;;;;35.75;24.30;;;3.70;99.90;;;;;;4951534;28;20733;-52
2023/01/20 06:13:58;;;;;;;37.88;24.23;;;3.20;99.90;;;;;;4951335;28;20222;-50
2023/01/20 06:16:25;;;;;;;36.88;22.92;;;3.00;99.90;;;;;;4951347;28;20232;-49
2023/01/20 06:18:53;;;;;;;34.38;23.90;;;3.70;99.90;;;;;;4950559;29;20211;-50
2023/01/20 06:21:20;;;;;;;39.47;24.55;;;3.70;99.90;;;;;;4950986;29;20675;-49
2023/01/20 06:23:47;;;;;;;40.60;23.00;;;3.40;99.90;;;;;;4950944;29;20233;-51
2023/01/20 06:26:14;;;;;;;32.83;22.25;;;3.50;99.90;;;;;;4951017;28;20269;-50
2023/01/20 06:28:41;;;;;;;37.92;24.33;;;3.50;99.90;;;;;;4950615;29;20680;-51
2023/01/20 06:31:09;;;;;;;33.72;22.90;;;3.20;99.90;;;;;;5017071;28;20210;-50
2023/01/20 06:33:36;;;;;;;36.63;22.98;;;3.50;99.90;;;;;;4950778;28;20556;-51
2023/01/20 06:36:05;;;;;;;39.80;24.25;;;3.90;99.90;;;;;;4951295;28;20596;-51
2023/01/20 06:38:33;;;;;;;38.17;24.40;;;3.20;99.90;;;;;;4950645;29;20199;-52
2023/01/20 06:41:01;;;;;;;35.15;23.90;;;3.30;99.90;;;;;;4950920;28;20191;-50
2023/01/20 06:43:29;;;;;;;37.70;23.40;;;3.30;99.90;;;;;;4950772;28;20293;-51
2023/01/20 06:46:00;;;;;;;36.97;23.90;;;3.40;99.90;;;;;;4949661;28;20219;-49
2023/01/20 06:48:27;;;;;;;38.38;24.90;;;3.10;99.90;;;;;;4950448;28;20196;-48
2023/01/20 06:51:00;;;;;;;42.60;25.05;;;3.80;99.90;;;;;;5016336;28;20254;-51
2023/01/20 06:53:28;;;;;;;38.45;25.77;;;3.30;99.90;;;;;;4950420;29;20214;-51
2023/01/20 06:55:55;;;;;;;47.47;26.20;;;3.20;99.90;;;;;;4950729;28;20225;-50
2023/01/20 06:58:23;;;;;;;41.53;26.25;;;3.50;99.90;;;;;;4950168;28;20199;-50
2023/01/20 07:00:50;;;;;;;42.50;27.33;;;3.20;99.90;;;;;;4950865;29;20276;-50
2023/01/20 07:03:17;;;;;;;44.15;26.92;;;3.40;99.90;;;;;;4950914;29;20196;-50
2023/01/20 07:05:43;;;;;;;43.83;26.60;;;3.30;99.90;;;;;;4950624;28;20238;-50
2023/01/20 07:08:10;;;;;;;41.78;25.90;;;3.50;99.90;;;;;;4950527;29;20203;-50
2023/01/20 07:10:38;;;;;;;35.08;23.65;;;3.50;99.90;;;;;;4950880;29;20261;-50
2023/01/20 07:13:05;;;;;;;39.47;25.02;;;3.50;99.90;;;;;;4950984;29;20200;-49
2023/01/20 07:15:31;;;;;;;44.42;26.98;;;3.60;99.90;;;;;;4950782;28;20281;-52
2023/01/20 07:17:58;;;;;;;44.17;29.70;;;3.70;99.90;;;;;;4950636;28;20210;-50
2023/01/20 07:20:25;;;;;;;34.38;21.85;;;3.70;99.90;;;;;;4950190;29;20607;-49
2023/01/20 07:22:51;;;;;;;31.42;21.45;;;3.50;99.90;;;;;;4950694;29;20229;-50
2023/01/20 07:25:18;;;;;;;33.95;21.20;;;3.50;99.90;;;;;;4950537;28;20223;-51
2023/01/20 07:27:46;;;;;;;39.85;23.17;;;3.50;99.90;;;;;;4950484;29;20192;-51
2023/01/20 07:30:13;;;;;;;41.60;25.33;;;3.50;99.90;;;;;;4950092;29;20208;-53
2023/01/20 07:32:39;;;;;;;39.47;24.60;;;3.20;99.90;;;;;;4950405;28;20291;-50
2023/01/20 07:35:06;;;;;;;34.67;22.98;;;3.40;99.90;;;;;;4950462;28;20239;-52
2023/01/20 07:37:34;;;;;;;31.05;23.08;;;3.40;99.90;;;;;;4950093;29;20204;-50
2023/01/20 07:40:00;;;;;;;38.10;23.52;;;3.60;99.90;;;;;;5015683;28;20238;-51
2023/01/20 07:42:27;;;;;;;39.75;23.45;;;3.60;99.90;;;;;;4950074;29;20196;-50
2023/01/20 07:44:55;;;;;;;43.00;25.25;;;3.70;99.90;;;;;;4950041;28;20218;-52
2023/01/20 07:47:22;;;;;;;38.85;24.40;;;3.80;99.90;;;;;;5016629;28;20204;-53
2023/01/20 07:49:48;;;;;;;34.53;24.60;;;3.50;99.90;;;;;;4950154;28;20199;-51
2023/01/20 07:52:15;;;;;;;41.40;24.88;;;3.60;99.90;;;;;;4949851;29;20208;-51
2023/01/20 07:54:41;;;;;;;48.08;25.40;;;3.10;99.90;;;;;;5016077;28;20668;-50
2023/01/20 07:57:08;;;;;;;42.78;26.23;;;3.50;99.90;;;;;;4951026;29;20203;-51
2023/01/20 07:59:35;;;;;;;46.13;25.02;;;3.40;99.90;;;;;;4953506;28;20207;-52
2023/01/20 08:02:03;;;;;;;44.95;26.30;;;3.60;99.90;;;;;;4953479;29;20208;-50
2023/01/20 08:04:29;;;;;;;48.30;24.73;;;3.70;99.90;;;;;;4953470;29;20195;-51
2023/01/20 08:06:56;;;;;;;46.72;24.92;;;3.70;99.90;;;;;;5019571;28;20291;-50
2023/01/20 08:09:23;;;;;;;41.22;23.15;;;3.40;99.90;;;;;;4952543;29;20199;-51
2023/01/20 08:11:49;;;;;;;35.03;22.38;;;3.70;99.90;;;;;;4953491;28;20203;-50
2023/01/20 08:14:16;;;;;;;37.17;23.05;;;3.70;99.90;;;;;;4953478;28;20631;-49
2023/01/20 08:16:43;;;;;;;35.90;22.25;;;4.10;99.90;;;;;;4953379;28;20232;-50
2023/01/20 08:19:11;;;;;;;36.33;21.88;;;3.60;99.90;;;;;;4952475;28;20195;-51
2023/01/20 08:21:37;;;;;;;34.97;20.80;;;3.70;99.90;;;;;;4953333;29;20235;-51
2023/01/20 08:24:05;;;;;;;38.13;22.05;;;3.70;99.90;;;;;;4953447;28;20707;-51
2023/01/20 08:26:32;;;;;;;37.10;22.20;;;3.60;99.90;;;;;;5019623;28;20285;-50
2023/01/20 08:29:03;;;;;;;34.75;21.75;;;3.10;99.90;;;;;;4953143;29;20632;-50
2023/01/20 08:31:30;;;;;;;39.40;22.73;;;3.60;99.90;;;;;;4953370;28;20206;-50
2023/01/20 08:33:57;;;;;;;37.85;22.13;;;3.90;99.90;;;;;;4952969;29;20672;-50
2023/01/20 08:36:27;;;;;;;38.97;22.95;;;3.80;99.90;;;;;;4953275;28;20605;-52
2023/01/20 08:38:56;;;;;;;37.40;23.63;;;3.60;99.90;;;;;;4952643;28;20203;-49
2023/01/20 08:41:25;;;;;;;34.67;22.70;;;4.20;99.90;;;;;;4953117;29;20554;-50
2023/01/20 08:43:52;;;;;;;36.80;23.67;;;3.80;99.90;;;;;;4953183;28;20206;-50
2023/01/20 08:46:20;;;;;;;39.35;24.60;;;3.10;99.90;;;;;;4953305;28;20231;-50
2023/01/20 08:48:48;;;;;;;38.67;24.33;;;3.60;99.90;;;;;;5018548;28;20217;-50
2023/01/20 08:51:17;;;;;;;44.72;25.33;;;3.80;99.90;;;;;;4953209;28;20207;-50
2023/01/20 08:53:45;;;;;;;42.80;25.27;;;3.80;99.90;;;;;;4952948;29;20192;-50
2023/01/20 08:56:12;;;;;;;47.95;28.50;;;3.80;99.90;;;;;;4952644;28;20242;-51
2023/01/20 08:58:39;;;;;;;48.90;29.33;;;3.70;99.90;;;;;;4952090;29;20203;-51
2023/01/20 09:01:10;;;;;;;62.90;38.72;;;3.80;99.90;;;;;;4952676;28;20250;-50
2023/01/20 09:03:37;;;;;;;44.60;27.75;;;3.70;99.90;;;;;;4952563;29;20206;-50
2023/01/20 09:06:05;;;;;;;36.42;26.13;;;3.90;99.90;;;;;;4952322;28;20274;-51
2023/01/20 09:08:32;;;;;;;44.85;27.00;;;4.00;99.90;;;;;;4951821;29;20648;-50
2023/01/20 09:11:05;;;;;;;39.53;25.65;;;3.80;99.90;;;;;;5018611;28;20208;-51
2023/01/20 09:13:32;;;;;;;43.13;26.40;;;4.10;99.90;;;;;;4952370;29;20199;-50
2023/01/20 09:15:58;;;;;;;45.88;26.67;;;3.90;99.90;;;;;;4952533;28;20231;-50
2023/01/20 09:18:25;;;;;;;38.50;25.45;;;3.80;99.90;;;;;;5018270;28;20661;-51
2023/01/20 09:20:52;;;;;;;40.25;26.48;;;3.80;99.90;;;;;;4952529;29;20207;-49
2023/01/20 09:23:18;;;;;;;43.92;27.70;;;3.20;99.90;;;;;;4952451;29;20207;-51
2023/01/20 09:25:45;;;;;;;44.38;28.40;;;4.00;99.90;;;;;;5018290;28;20226;-50
2023/01/20 09:28:13;;;;;;;42.78;27.10;;;3.20;99.90;;;;;;4952185;28;20211;-49
2023/01/20 09:30:41;;;;;;;41.60;26.65;;;4.00;99.90;;;;;;4952688;28;20733;-51
2023/01/20 09:33:09;;;;;;;49.10;26.33;;;3.30;99.90;;;;;;4952410;28;20210;-49
2023/01/20 09:35:35;;;;;;;36.70;26.25;;;4.10;99.90;;;;;;4952159;28;20242;-50
2023/01/20 09:43:56;;;;;;;36.25;22.30;;;4.00;99.90;;;;;;4962631;28;20210;-49
2023/01/20 09:46:38;;;;;;;38.90;24.27;;;3.80;99.90;;;;;;4952236;28;20288;-49
2023/01/20 09:54:58;;;;;;;37.88;21.63;;;3.80;99.90;;;;;;4951976;28;20255;-51
2023/01/20 09:57:30;;;;;;;34.45;21.88;;;3.40;99.90;;;;;;5017884;28;20211;-51
2023/01/20 10:00:05;;;;;;;37.60;22.13;;;3.90;99.90;;;;;;4951579;28;20658;-50
2023/01/20 10:02:36;;;;;;;37.30;22.88;;;3.70;99.90;;;;;;4952066;28;20205;-50
2023/01/20 10:05:07;;;;;;;36.33;21.75;;;3.90;99.90;;;;;;4951523;28;20306;-50
2023/01/20 10:07:38;;;;;;;41.88;24.75;;;3.80;99.90;;;;;;4951837;29;20565;-50
2023/01/20 10:10:13;;;;;;;35.63;22.40;;;3.70;99.90;;;;;;4951430;29;20203;-52
2023/01/20 10:12:45;;;;;;;38.22;22.90;;;3.90;99.90;;;;;;4951679;28;20203;-51
2023/01/20 10:15:16;;;;;;;41.53;24.42;;;3.90;99.90;;;;;;4951332;28;20239;-50
2023/01/20 10:17:50;;;;;;;38.70;24.58;;;3.40;99.90;;;;;;4951365;29;20214;-51
2023/01/20 10:20:25;;;;;;;42.80;23.83;;;3.90;99.90;;;;;;4950745;28;20207;-50
2023/01/20 10:22:55;;;;;;;38.85;24.88;;;4.10;99.90;;;;;;4951234;29;20210;-51
2023/01/20 10:25:26;;;;;;;37.45;23.25;;;4.10;99.90;;;;;;4951361;28;20219;-51
2023/01/20 10:27:57;;;;;;;37.10;22.08;;;4.00;99.90;;;;;;4951733;29;20582;-49
2023/01/20 10:30:30;;;;;;;38.15;22.23;;;4.00;99.90;;;;;;4951283;29;20207;-49
2023/01/20 10:33:03;;;;;;;35.30;22.95;;;3.80;99.90;;;;;;4952020;28;20214;-50
2023/01/20 10:35:35;;;;;;;35.30;22.70;;;3.30;99.90;;;;;;4952176;28;20227;-50
2023/01/20 10:38:06;;;;;;;35.28;22.77;;;4.00;99.90;;;;;;4951508;28;20664;-50
2023/01/20 10:40:38;;;;;;;40.05;24.08;;;3.90;99.90;;;;;;4951959;28;20204;-49
2023/01/20 10:43:11;;;;;;;38.03;21.70;;;3.90;99.90;;;;;;4951519;28;20266;-51
2023/01/20 10:46:03;;;;;;;35.72;20.80;;;3.90;99.90;;;;;;4951721;28;20218;-50
2023/01/20 10:48:58;;;;;;;33.25;22.58;;;4.10;99.90;;;;;;4951203;28;20214;-50
2023/01/20 10:51:30;;;;;;;34.47;21.77;;;4.00;99.90;;;;;;4952365;28;20226;-49
2023/01/20 10:54:05;;;;;;;40.70;22.92;;;4.30;99.90;;;;;;4951971;28;20230;-50
2023/01/20 10:56:37;;;;;;;36.42;24.50;;;4.30;99.90;;;;;;5017122;28;20451;-50
2023/01/20 10:59:08;;;;;;;40.25;23.02;;;4.20;99.90;;;;;;4951047;29;20199;-50
2023/01/20 11:01:36;;;;;;;38.60;22.65;;;4.00;99.90;;;;;;4951284;28;20215;-51
2023/01/20 11:04:03;;;;;;;39.22;23.98;;;4.00;99.90;;;;;;4951106;29;20208;-49
2023/01/20 11:06:30;;;;;;;39.38;24.30;;;4.20;99.90;;;;;;4951150;28;20601;-50
2023/01/20 11:09:00;;;;;;;39.40;23.63;;;4.10;99.90;;;;;;4950980;28;20521;-50
2023/01/20 11:11:28;;;;;;;44.63;26.90;;;4.00;99.90;;;;;;4950469;29;20769;-51
2023/01/20 11:13:56;;;;;;;33.72;23.63;;;3.70;99.90;;;;;;4950911;28;20195;-49
2023/01/20 11:16:27;;;;;;;41.47;27.73;;;3.60;99.90;;;;;;4949899;28;20464;-50
2023/01/20 11:19:01;;;;;;;40.85;24.25;;;4.50;99.90;;;;;;4950419;28;20192;-51
2023/01/20 11:21:30;;;;;;;37.33;24.65;;;4.10;99.90;;;;;;4950193;29;20195;-53
2023/01/20 11:23:57;;;;;;;32.22;20.67;;;4.40;99.90;;;;;;4950468;28;20553;-51
2023/01/20 11:26:27;;;;;;;34.40;23.70;;;4.10;99.90;;;;;;4950375;28;20211;-50
2023/01/20 11:28:55;;;;;;;37.88;23.55;;;4.00;99.90;;;;;;4949650;28;20210;-51
2023/01/20 11:31:35;;;;;;;40.10;23.95;;;3.90;99.90;;;;;;4950318;28;20200;-51
2023/01/20 11:34:21;;;;;;;49.63;27.52;;;4.00;99.90;;;;;;4953870;29;20203;-51
2023/01/20 11:36:48;;;;;;;44.65;29.65;;;3.70;99.90;;;;;;4952301;28;20452;-50
2023/01/20 11:39:25;;;;;;;42.58;26.65;;;4.20;99.90;;;;;;4953155;29;20228;-51
2023/01/20 11:42:11;;;;;;;39.28;25.73;;;4.10;99.90;;;;;;4953861;28;20298;-51
2023/01/20 11:44:42;;;;;;;38.13;25.20;;;4.10;99.90;;;;;;4953412;28;20288;-51
2023/01/20 11:47:21;;;;;;;38.50;27.20;;;3.40;99.90;;;;;;4953213;29;20195;-50
2023/01/20 11:50:18;;;;;;;42.67;25.08;;;4.00;99.90;;;;;;4952792;29;20203;-50
2023/01/20 11:52:46;;;;;;;39.42;25.88;;;4.00;99.90;;;;;;4953734;28;20675;-51
2023/01/20 11:55:15;;;;;;;49.97;27.98;;;4.10;99.90;;;;;;4953654;28;20231;-50
2023/01/20 11:57:45;;;;;;;34.20;24.50;;;4.10;99.90;;;;;;5020176;28;20209;-52
2023/01/20 12:00:31;;;;;;;45.65;25.67;;;4.10;99.90;;;;;;4952799;29;20204;-52
2023/01/20 12:03:00;;;;;;;42.67;24.65;;;4.20;99.90;;;;;;4953121;28;20203;-51
2023/01/20 12:05:32;;;;;;;39.25;23.80;;;4.40;99.90;;;;;;4967453;23;20227;-49
2023/01/20 12:08:01;;;;;;;39.50;22.60;;;3.70;99.90;;;;;;4953606;29;20231;-49
2023/01/20 12:10:32;;;;;;;45.30;28.42;;;4.30;99.90;;;;;;4952983;29;20480;-50
2023/01/20 12:13:03;;;;;;;39.72;27.35;;;4.50;99.90;;;;;;4953416;29;20196;-49
2023/01/20 12:15:32;;;;;;;47.08;27.38;;;4.80;99.90;;;;;;4953163;28;20232;-49
2023/01/20 12:18:03;;;;;;;41.60;26.88;;;5.10;99.90;;;;;;4953157;28;20548;-49
2023/01/20 12:20:36;;;;;;;40.70;25.90;;;4.60;99.90;;;;;;4953161;28;20514;-49
2023/01/20 12:23:19;;;;;;;41.10;27.80;;;4.30;99.90;;;;;;4953322;28;20247;-49
2023/01/20 12:25:51;;;;;;;44.70;28.17;;;4.80;99.90;;;;;;4953262;28;20726;-49
2023/01/20 12:28:21;;;;;;;43.70;25.20;;;4.90;99.90;;;;;;4952389;28;20695;-50
2023/01/20 12:30:57;;;;;;;38.92;25.75;;;4.70;99.90;;;;;;4953716;29;20522;-50
2023/01/20 12:33:25;;;;;;;42.38;25.98;;;4.40;99.90;;;;;;4953268;29;20663;-50
2023/01/20 12:36:32;;;;;;;42.10;26.17;;;4.40;99.90;;;;;;4953293;28;20219;-51
2023/01/20 12:39:25;;;;;;;40.15;26.13;;;5.00;99.90;;;;;;4953103;29;20199;-50
2023/01/20 12:42:19;;;;;;;41.35;27.40;;;4.70;99.90;;;;;;4952562;28;20951;-49
2023/01/20 12:45:03;;;;;;;41.58;25.90;;;4.50;99.90;;;;;;4952096;28;20203;-48
2023/01/20 12:47:45;;;;;;;40.13;26.38;;;4.80;99.90;;;;;;4953140;29;20654;-48
2023/01/20 12:50:30;;;;;;;42.17;28.05;;;4.50;99.90;;;;;;4952427;28;20434;-47
2023/01/20 12:53:13;;;;;;;45.45;30.27;;;4.60;99.90;;;;;;4952086;29;20498;-49
2023/01/20 12:55:54;;;;;;;42.95;28.05;;;5.20;99.90;;;;;;4952302;28;20223;-49
2023/01/20 12:58:35;;;;;;;45.50;27.10;;;4.80;99.90;;;;;;4952564;29;20261;-49
2023/01/20 13:01:28;;;;;;;40.17;25.30;;;5.00;99.90;;;;;;4952999;28;20211;-48